Accueil
METAR-TAF:

METAR-TAF

Aéroports :

Moorhead Municipal Airport

Moorhead, Minnesota, États-Unis

latitude: 46-50-21N, longitude: 096-39-47W, altitude: 280 m

Observation

Le bulletin a été fait il y a 12 minutes, à 16:35 UTC
Vent 11 kt de sud
Température -4°C
Humidité 63%
Pression 1020 hPa
Visibilité: 16.1 km
Nuages épars à une hauteur de 6500 ft

METAR: KJKJ 141635Z AUTO 18011KT 10SM SCT065 M04/M10 A3012 RMK AO2

Heure: 10:47 (16:47 UTC)


TAF: absent

Observations et prévisions météorologiques de plus de 4000 aéroports (messages METAR et TAF).

Les stations disponibles sont représentées par des disques jaunes et rouges sur la carte.

Passer la souris dessus pour voir le nom de la station.

Cliquer dessus pour voir les observations et prévisions météorologiques.

Pour changer de carte: cliquez sur les boutons verts avec une croix noire pour zoomer, sur le bouton vert avec un tiret pour effectuer un zoom arrière, ou sur les flèches vertes pour les cartes adjacentes.


METAR-TAF: